sensor_id;sensor_type;location;lat;lon;timestamp;P1;durP1;ratioP1;P2;durP2;ratioP2
50555;SDS011;36508;52.512;13.450;2022-11-15T00:00:47;41.87;;;37.67;;
50555;SDS011;36508;52.512;13.450;2022-11-15T00:03:13;41.63;;;35.50;;
50555;SDS011;36508;52.512;13.450;2022-11-15T00:05:43;43.73;;;38.93;;
50555;SDS011;36508;52.512;13.450;2022-11-15T00:08:09;39.97;;;34.57;;
50555;SDS011;36508;52.512;13.450;2022-11-15T00:10:35;38.77;;;34.60;;
50555;SDS011;36508;52.512;13.450;2022-11-15T00:13:12;41.93;;;35.40;;
50555;SDS011;36508;52.512;13.450;2022-11-15T00:15:38;40.17;;;35.47;;
50555;SDS011;36508;52.512;13.450;2022-11-15T00:18:05;41.57;;;32.70;;
50555;SDS011;36508;52.512;13.450;2022-11-15T00:20:36;41.17;;;36.07;;
50555;SDS011;36508;52.512;13.450;2022-11-15T00:23:02;37.03;;;33.10;;
50555;SDS011;36508;52.512;13.450;2022-11-15T00:25:29;36.87;;;32.87;;
50555;SDS011;36508;52.512;13.450;2022-11-15T00:27:55;35.87;;;31.47;;
50555;SDS011;36508;52.512;13.450;2022-11-15T00:30:22;38.73;;;34.53;;
50555;SDS011;36508;52.512;13.450;2022-11-15T00:32:47;37.30;;;33.57;;
50555;SDS011;36508;52.512;13.450;2022-11-15T00:35:13;35.57;;;31.70;;
50555;SDS011;36508;52.512;13.450;2022-11-15T00:37:39;43.50;;;38.90;;
50555;SDS011;36508;52.512;13.450;2022-11-15T00:40:05;36.50;;;32.50;;
50555;SDS011;36508;52.512;13.450;2022-11-15T00:42:32;40.47;;;36.00;;
50555;SDS011;36508;52.512;13.450;2022-11-15T00:44:57;43.10;;;35.83;;
50555;SDS011;36508;52.512;13.450;2022-11-15T00:47:23;39.13;;;35.00;;
50555;SDS011;36508;52.512;13.450;2022-11-15T00:49:48;37.83;;;33.10;;
50555;SDS011;36508;52.512;13.450;2022-11-15T00:52:14;41.83;;;36.60;;
50555;SDS011;36508;52.512;13.450;2022-11-15T00:54:39;40.77;;;34.17;;
50555;SDS011;36508;52.512;13.450;2022-11-15T00:57:05;52.37;;;44.47;;
50555;SDS011;36508;52.512;13.450;2022-11-15T00:59:31;41.27;;;36.20;;
50555;SDS011;36508;52.512;13.450;2022-11-15T01:01:56;44.50;;;36.80;;
50555;SDS011;36508;52.512;13.450;2022-11-15T01:04:22;41.10;;;36.50;;
50555;SDS011;36508;52.512;13.450;2022-11-15T01:06:49;41.43;;;34.33;;
50555;SDS011;36508;52.512;13.450;2022-11-15T01:09:14;45.47;;;40.53;;
50555;SDS011;36508;52.512;13.450;2022-11-15T01:11:40;46.83;;;41.50;;
50555;SDS011;36508;52.512;13.450;2022-11-15T01:14:05;45.30;;;40.57;;
50555;SDS011;36508;52.512;13.450;2022-11-15T01:16:31;36.87;;;32.77;;
50555;SDS011;36508;52.512;13.450;2022-11-15T01:18:58;41.57;;;35.40;;
50555;SDS011;36508;52.512;13.450;2022-11-15T01:21:24;39.37;;;35.23;;
50555;SDS011;36508;52.512;13.450;2022-11-15T01:23:52;41.20;;;35.90;;
50555;SDS011;36508;52.512;13.450;2022-11-15T01:26:21;36.80;;;32.27;;
50555;SDS011;36508;52.512;13.450;2022-11-15T01:28:47;42.87;;;38.20;;
50555;SDS011;36508;52.512;13.450;2022-11-15T01:31:17;41.00;;;36.60;;
50555;SDS011;36508;52.512;13.450;2022-11-15T01:33:44;39.97;;;35.63;;
50555;SDS011;36508;52.512;13.450;2022-11-15T01:36:12;41.20;;;35.00;;
50555;SDS011;36508;52.512;13.450;2022-11-15T01:38:40;42.07;;;37.03;;
50555;SDS011;36508;52.512;13.450;2022-11-15T01:41:06;39.73;;;33.13;;
50555;SDS011;36508;52.512;13.450;2022-11-15T01:43:39;39.67;;;35.40;;
50555;SDS011;36508;52.512;13.450;2022-11-15T01:49:00;35.90;;;32.10;;
50555;SDS011;36508;52.512;13.450;2022-11-15T01:51:29;38.47;;;34.27;;
50555;SDS011;36508;52.512;13.450;2022-11-15T01:53:59;40.93;;;34.80;;
50555;SDS011;36508;52.512;13.450;2022-11-15T01:56:29;36.80;;;32.90;;
50555;SDS011;36508;52.512;13.450;2022-11-15T01:58:58;38.80;;;34.40;;
50555;SDS011;36508;52.512;13.450;2022-11-15T02:01:26;37.30;;;33.20;;
50555;SDS011;36508;52.512;13.450;2022-11-15T02:03:59;41.83;;;37.40;;
50555;SDS011;36508;52.512;13.450;2022-11-15T02:06:27;39.13;;;33.87;;
50555;SDS011;36508;52.512;13.450;2022-11-15T02:08:53;47.70;;;39.40;;
50555;SDS011;36508;52.512;13.450;2022-11-15T02:11:19;38.93;;;34.63;;
50555;SDS011;36508;52.512;13.450;2022-11-15T02:13:48;40.30;;;34.93;;
50555;SDS011;36508;52.512;13.450;2022-11-15T02:32:45;42.67;;;35.73;;
50555;SDS011;36508;52.512;13.450;2022-11-15T02:43:12;38.03;;;33.07;;
50555;SDS011;36508;52.512;13.450;2022-11-15T02:46:07;41.73;;;34.87;;
50555;SDS011;36508;52.512;13.450;2022-11-15T02:48:39;39.10;;;33.77;;
50555;SDS011;36508;52.512;13.450;2022-11-15T02:51:08;38.00;;;33.60;;
50555;SDS011;36508;52.512;13.450;2022-11-15T02:53:33;38.23;;;34.20;;
50555;SDS011;36508;52.512;13.450;2022-11-15T02:55:59;43.53;;;36.80;;
50555;SDS011;36508;52.512;13.450;2022-11-15T03:01:24;42.90;;;36.47;;
50555;SDS011;36508;52.512;13.450;2022-11-15T03:07:32;38.03;;;32.70;;
50555;SDS011;36508;52.512;13.450;2022-11-15T03:10:26;42.03;;;35.20;;
50555;SDS011;36508;52.512;13.450;2022-11-15T03:12:55;43.30;;;33.33;;
50555;SDS011;36508;52.512;13.450;2022-11-15T03:15:28;40.00;;;35.40;;
50555;SDS011;36508;52.512;13.450;2022-11-15T03:18:00;41.30;;;35.80;;
50555;SDS011;36508;52.512;13.450;2022-11-15T03:20:30;40.40;;;32.53;;
50555;SDS011;36508;52.512;13.450;2022-11-15T03:23:00;38.43;;;32.20;;
50555;SDS011;36508;52.512;13.450;2022-11-15T03:25:29;36.17;;;32.20;;
50555;SDS011;36508;52.512;13.450;2022-11-15T03:27:57;37.03;;;32.73;;
50555;SDS011;36508;52.512;13.450;2022-11-15T03:30:25;39.30;;;30.50;;
50555;SDS011;36508;52.512;13.450;2022-11-15T03:32:56;37.80;;;33.73;;
50555;SDS011;36508;52.512;13.450;2022-11-15T03:35:25;37.40;;;33.23;;
50555;SDS011;36508;52.512;13.450;2022-11-15T03:40:36;35.50;;;30.77;;
50555;SDS011;36508;52.512;13.450;2022-11-15T03:46:10;40.97;;;36.50;;
50555;SDS011;36508;52.512;13.450;2022-11-15T03:48:44;41.67;;;35.27;;
50555;SDS011;36508;52.512;13.450;2022-11-15T03:51:15;42.40;;;36.37;;
50555;SDS011;36508;52.512;13.450;2022-11-15T03:53:42;36.37;;;32.47;;
50555;SDS011;36508;52.512;13.450;2022-11-15T03:56:07;37.10;;;32.27;;
50555;SDS011;36508;52.512;13.450;2022-11-15T03:58:33;39.37;;;34.00;;
50555;SDS011;36508;52.512;13.450;2022-11-15T04:00:58;42.00;;;36.63;;
50555;SDS011;36508;52.512;13.450;2022-11-15T04:03:24;36.20;;;31.57;;
50555;SDS011;36508;52.512;13.450;2022-11-15T04:05:50;38.10;;;33.90;;
50555;SDS011;36508;52.512;13.450;2022-11-15T04:08:16;42.10;;;36.50;;
50555;SDS011;36508;52.512;13.450;2022-11-15T04:10:41;45.03;;;37.50;;
50555;SDS011;36508;52.512;13.450;2022-11-15T04:13:07;41.07;;;36.73;;
50555;SDS011;36508;52.512;13.450;2022-11-15T04:15:33;36.43;;;32.53;;
50555;SDS011;36508;52.512;13.450;2022-11-15T04:17:59;44.30;;;38.00;;
50555;SDS011;36508;52.512;13.450;2022-11-15T04:20:25;41.87;;;34.80;;
50555;SDS011;36508;52.512;13.450;2022-11-15T04:23:21;41.50;;;35.30;;
50555;SDS011;36508;52.512;13.450;2022-11-15T04:26:07;39.40;;;35.30;;
50555;SDS011;36508;52.512;13.450;2022-11-15T04:28:39;39.77;;;32.87;;
50555;SDS011;36508;52.512;13.450;2022-11-15T04:31:25;38.50;;;32.60;;
50555;SDS011;36508;52.512;13.450;2022-11-15T04:33:51;41.30;;;33.20;;
50555;SDS011;36508;52.512;13.450;2022-11-15T04:36:16;39.33;;;35.33;;
50555;SDS011;36508;52.512;13.450;2022-11-15T04:39:00;41.10;;;36.60;;
50555;SDS011;36508;52.512;13.450;2022-11-15T04:41:26;39.53;;;32.77;;
50555;SDS011;36508;52.512;13.450;2022-11-15T04:43:52;37.87;;;33.80;;
50555;SDS011;36508;52.512;13.450;2022-11-15T04:46:17;37.00;;;32.50;;
50555;SDS011;36508;52.512;13.450;2022-11-15T04:48:45;38.10;;;33.50;;
50555;SDS011;36508;52.512;13.450;2022-11-15T04:51:11;51.53;;;39.50;;
50555;SDS011;36508;52.512;13.450;2022-11-15T04:53:36;47.23;;;38.77;;
50555;SDS011;36508;52.512;13.450;2022-11-15T04:56:02;50.60;;;39.00;;
50555;SDS011;36508;52.512;13.450;2022-11-15T04:58:27;47.17;;;37.70;;
50555;SDS011;36508;52.512;13.450;2022-11-15T05:00:53;43.90;;;33.47;;
50555;SDS011;36508;52.512;13.450;2022-11-15T05:03:19;40.07;;;35.90;;
50555;SDS011;36508;52.512;13.450;2022-11-15T05:06:03;42.83;;;36.03;;
50555;SDS011;36508;52.512;13.450;2022-11-15T05:08:28;37.27;;;31.97;;
50555;SDS011;36508;52.512;13.450;2022-11-15T05:10:54;37.70;;;33.57;;
50555;SDS011;36508;52.512;13.450;2022-11-15T05:13:19;37.60;;;32.67;;
50555;SDS011;36508;52.512;13.450;2022-11-15T05:15:45;37.67;;;31.87;;
50555;SDS011;36508;52.512;13.450;2022-11-15T05:18:11;37.77;;;33.77;;
50555;SDS011;36508;52.512;13.450;2022-11-15T05:20:38;39.33;;;34.30;;
50555;SDS011;36508;52.512;13.450;2022-11-15T05:23:03;35.30;;;31.20;;
50555;SDS011;36508;52.512;13.450;2022-11-15T05:25:29;42.50;;;36.47;;
50555;SDS011;36508;52.512;13.450;2022-11-15T05:27:55;37.57;;;30.67;;
50555;SDS011;36508;52.512;13.450;2022-11-15T05:30:21;37.27;;;29.60;;
50555;SDS011;36508;52.512;13.450;2022-11-15T05:32:46;40.10;;;33.17;;
50555;SDS011;36508;52.512;13.450;2022-11-15T05:35:13;39.33;;;32.80;;
50555;SDS011;36508;52.512;13.450;2022-11-15T05:37:44;38.77;;;33.43;;
50555;SDS011;36508;52.512;13.450;2022-11-15T05:40:10;41.13;;;33.87;;
50555;SDS011;36508;52.512;13.450;2022-11-15T05:42:35;41.97;;;34.93;;
50555;SDS011;36508;52.512;13.450;2022-11-15T05:45:02;36.30;;;32.43;;
50555;SDS011;36508;52.512;13.450;2022-11-15T05:47:30;37.43;;;33.30;;
50555;SDS011;36508;52.512;13.450;2022-11-15T05:49:56;37.57;;;32.53;;
50555;SDS011;36508;52.512;13.450;2022-11-15T05:52:23;40.77;;;36.37;;
50555;SDS011;36508;52.512;13.450;2022-11-15T05:54:53;40.37;;;35.80;;
50555;SDS011;36508;52.512;13.450;2022-11-15T05:57:20;40.67;;;34.60;;
50555;SDS011;36508;52.512;13.450;2022-11-15T05:59:46;40.10;;;35.57;;
50555;SDS011;36508;52.512;13.450;2022-11-15T06:02:11;41.17;;;33.87;;
50555;SDS011;36508;52.512;13.450;2022-11-15T06:04:37;39.00;;;32.57;;
50555;SDS011;36508;52.512;13.450;2022-11-15T06:07:03;40.70;;;34.50;;
50555;SDS011;36508;52.512;13.450;2022-11-15T06:09:28;39.83;;;35.20;;
50555;SDS011;36508;52.512;13.450;2022-11-15T06:11:54;40.20;;;36.00;;
50555;SDS011;36508;52.512;13.450;2022-11-15T06:14:20;38.50;;;33.83;;
50555;SDS011;36508;52.512;13.450;2022-11-15T06:16:45;46.97;;;37.70;;
50555;SDS011;36508;52.512;13.450;2022-11-15T06:19:11;46.43;;;41.07;;
50555;SDS011;36508;52.512;13.450;2022-11-15T06:21:36;49.13;;;42.27;;
50555;SDS011;36508;52.512;13.450;2022-11-15T06:24:02;47.50;;;41.37;;
50555;SDS011;36508;52.512;13.450;2022-11-15T06:26:28;43.57;;;39.07;;
50555;SDS011;36508;52.512;13.450;2022-11-15T06:28:53;37.73;;;33.73;;
50555;SDS011;36508;52.512;13.450;2022-11-15T06:31:19;37.27;;;30.90;;
50555;SDS011;36508;52.512;13.450;2022-11-15T06:33:46;44.10;;;36.67;;
50555;SDS011;36508;52.512;13.450;2022-11-15T06:36:12;39.60;;;34.37;;
50555;SDS011;36508;52.512;13.450;2022-11-15T06:38:42;35.30;;;31.70;;
50555;SDS011;36508;52.512;13.450;2022-11-15T06:41:10;40.97;;;35.60;;
50555;SDS011;36508;52.512;13.450;2022-11-15T06:43:36;41.10;;;35.40;;
50555;SDS011;36508;52.512;13.450;2022-11-15T06:46:03;42.30;;;35.57;;
50555;SDS011;36508;52.512;13.450;2022-11-15T06:48:30;50.63;;;38.13;;
50555;SDS011;36508;52.512;13.450;2022-11-15T06:50:57;44.77;;;37.20;;
50555;SDS011;36508;52.512;13.450;2022-11-15T06:53:30;41.80;;;34.83;;
50555;SDS011;36508;52.512;13.450;2022-11-15T06:56:05;42.27;;;35.20;;
50555;SDS011;36508;52.512;13.450;2022-11-15T06:58:32;43.20;;;37.23;;
50555;SDS011;36508;52.512;13.450;2022-11-15T07:00:59;35.37;;;31.53;;
50555;SDS011;36508;52.512;13.450;2022-11-15T07:03:28;40.30;;;33.43;;
50555;SDS011;36508;52.512;13.450;2022-11-15T07:05:54;36.03;;;32.27;;
50555;SDS011;36508;52.512;13.450;2022-11-15T07:08:21;45.07;;;36.03;;
50555;SDS011;36508;52.512;13.450;2022-11-15T07:10:48;39.33;;;35.00;;
50555;SDS011;36508;52.512;13.450;2022-11-15T07:13:14;39.07;;;34.70;;
50555;SDS011;36508;52.512;13.450;2022-11-15T07:15:40;43.03;;;33.20;;
50555;SDS011;36508;52.512;13.450;2022-11-15T07:18:06;41.23;;;36.70;;
50555;SDS011;36508;52.512;13.450;2022-11-15T07:20:31;41.20;;;35.37;;
50555;SDS011;36508;52.512;13.450;2022-11-15T07:23:00;42.80;;;35.97;;
50555;SDS011;36508;52.512;13.450;2022-11-15T07:25:30;38.73;;;34.37;;
50555;SDS011;36508;52.512;13.450;2022-11-15T07:27:57;36.13;;;32.33;;
50555;SDS011;36508;52.512;13.450;2022-11-15T07:30:24;41.50;;;35.67;;
50555;SDS011;36508;52.512;13.450;2022-11-15T07:32:57;49.03;;;40.83;;
50555;SDS011;36508;52.512;13.450;2022-11-15T07:35:24;40.87;;;36.10;;
50555;SDS011;36508;52.512;13.450;2022-11-15T07:37:58;41.30;;;33.73;;
50555;SDS011;36508;52.512;13.450;2022-11-15T07:40:26;38.70;;;34.43;;
50555;SDS011;36508;52.512;13.450;2022-11-15T07:42:52;45.37;;;33.00;;
50555;SDS011;36508;52.512;13.450;2022-11-15T07:45:27;37.93;;;33.83;;
50555;SDS011;36508;52.512;13.450;2022-11-15T07:47:53;44.70;;;38.17;;
50555;SDS011;36508;52.512;13.450;2022-11-15T07:50:21;45.10;;;38.40;;
50555;SDS011;36508;52.512;13.450;2022-11-15T07:52:47;48.80;;;40.87;;
50555;SDS011;36508;52.512;13.450;2022-11-15T07:55:17;42.40;;;36.87;;
50555;SDS011;36508;52.512;13.450;2022-11-15T07:57:43;40.80;;;35.13;;
50555;SDS011;36508;52.512;13.450;2022-11-15T08:00:09;40.97;;;35.70;;
50555;SDS011;36508;52.512;13.450;2022-11-15T08:02:35;47.17;;;40.73;;
50555;SDS011;36508;52.512;13.450;2022-11-15T08:05:00;39.80;;;35.50;;
50555;SDS011;36508;52.512;13.450;2022-11-15T08:07:28;44.80;;;37.80;;
50555;SDS011;36508;52.512;13.450;2022-11-15T08:09:55;41.00;;;36.70;;
50555;SDS011;36508;52.512;13.450;2022-11-15T08:12:21;49.63;;;38.80;;
50555;SDS011;36508;52.512;13.450;2022-11-15T08:14:47;39.43;;;34.40;;
50555;SDS011;36508;52.512;13.450;2022-11-15T08:17:13;37.73;;;33.67;;
50555;SDS011;36508;52.512;13.450;2022-11-15T08:19:38;36.93;;;32.80;;
50555;SDS011;36508;52.512;13.450;2022-11-15T08:22:04;40.20;;;36.00;;
50555;SDS011;36508;52.512;13.450;2022-11-15T08:24:30;46.23;;;34.57;;
50555;SDS011;36508;52.512;13.450;2022-11-15T08:26:55;47.40;;;37.60;;
50555;SDS011;36508;52.512;13.450;2022-11-15T08:29:21;45.43;;;40.67;;
50555;SDS011;36508;52.512;13.450;2022-11-15T08:31:47;38.17;;;34.07;;
50555;SDS011;36508;52.512;13.450;2022-11-15T08:34:12;38.13;;;34.10;;
50555;SDS011;36508;52.512;13.450;2022-11-15T08:36:38;37.13;;;32.83;;
50555;SDS011;36508;52.512;13.450;2022-11-15T08:39:04;43.50;;;36.67;;
50555;SDS011;36508;52.512;13.450;2022-11-15T08:41:31;45.73;;;36.47;;
50555;SDS011;36508;52.512;13.450;2022-11-15T08:43:58;44.10;;;39.20;;
50555;SDS011;36508;52.512;13.450;2022-11-15T08:46:30;45.97;;;39.53;;
50555;SDS011;36508;52.512;13.450;2022-11-15T08:48:56;49.73;;;40.07;;
50555;SDS011;36508;52.512;13.450;2022-11-15T08:51:21;52.47;;;43.27;;
50555;SDS011;36508;52.512;13.450;2022-11-15T08:53:47;41.53;;;37.33;;
50555;SDS011;36508;52.512;13.450;2022-11-15T08:56:13;39.13;;;31.43;;
50555;SDS011;36508;52.512;13.450;2022-11-15T08:58:40;38.83;;;33.30;;
50555;SDS011;36508;52.512;13.450;2022-11-15T09:01:13;50.17;;;44.70;;
50555;SDS011;36508;52.512;13.450;2022-11-15T09:03:40;57.90;;;51.63;;
50555;SDS011;36508;52.512;13.450;2022-11-15T09:06:06;55.13;;;43.17;;
50555;SDS011;36508;52.512;13.450;2022-11-15T09:08:32;38.93;;;34.73;;
50555;SDS011;36508;52.512;13.450;2022-11-15T09:10:57;36.73;;;31.77;;
50555;SDS011;36508;52.512;13.450;2022-11-15T09:13:23;40.00;;;33.93;;
50555;SDS011;36508;52.512;13.450;2022-11-15T09:15:48;37.73;;;33.50;;
50555;SDS011;36508;52.512;13.450;2022-11-15T09:18:14;33.03;;;28.73;;
50555;SDS011;36508;52.512;13.450;2022-11-15T09:20:39;38.87;;;32.80;;
50555;SDS011;36508;52.512;13.450;2022-11-15T09:23:05;35.67;;;31.53;;
50555;SDS011;36508;52.512;13.450;2022-11-15T09:25:31;37.60;;;31.53;;
50555;SDS011;36508;52.512;13.450;2022-11-15T09:27:57;35.97;;;29.60;;
50555;SDS011;36508;52.512;13.450;2022-11-15T09:30:24;30.90;;;27.70;;
50555;SDS011;36508;52.512;13.450;2022-11-15T09:32:50;33.43;;;30.17;;
50555;SDS011;36508;52.512;13.450;2022-11-15T09:35:16;35.57;;;31.97;;
50555;SDS011;36508;52.512;13.450;2022-11-15T09:37:41;35.73;;;31.03;;
50555;SDS011;36508;52.512;13.450;2022-11-15T09:40:11;34.90;;;31.23;;
50555;SDS011;36508;52.512;13.450;2022-11-15T09:42:51;29.30;;;26.30;;
50555;SDS011;36508;52.512;13.450;2022-11-15T09:45:34;31.50;;;27.97;;
50555;SDS011;36508;52.512;13.450;2022-11-15T09:51:02;33.00;;;29.50;;
50555;SDS011;36508;52.512;13.450;2022-11-15T09:53:32;35.47;;;31.60;;
50555;SDS011;36508;52.512;13.450;2022-11-15T09:56:21;31.60;;;28.37;;
50555;SDS011;36508;52.512;13.450;2022-11-15T09:59:02;27.83;;;25.00;;
50555;SDS011;36508;52.512;13.450;2022-11-15T10:02:31;27.37;;;24.67;;
50555;SDS011;36508;52.512;13.450;2022-11-15T10:04:48;27.60;;;24.77;;
50555;SDS011;36508;52.512;13.450;2022-11-15T10:12:23;26.73;;;24.43;;
50555;SDS011;36508;52.512;13.450;2022-11-15T10:14:51;25.57;;;23.33;;
50555;SDS011;36508;52.512;13.450;2022-11-15T10:17:30;20.60;;;18.73;;
50555;SDS011;36508;52.512;13.450;2022-11-15T10:22:45;28.83;;;26.13;;
50555;SDS011;36508;52.512;13.450;2022-11-15T10:27:44;29.20;;;26.47;;
50555;SDS011;36508;52.512;13.450;2022-11-15T10:30:17;32.10;;;27.50;;
50555;SDS011;36508;52.512;13.450;2022-11-15T10:32:43;20.90;;;19.00;;
50555;SDS011;36508;52.512;13.450;2022-11-15T10:35:24;20.43;;;18.23;;
50555;SDS011;36508;52.512;13.450;2022-11-15T10:37:52;20.33;;;18.50;;
50555;SDS011;36508;52.512;13.450;2022-11-15T10:40:29;25.93;;;20.77;;
50555;SDS011;36508;52.512;13.450;2022-11-15T10:45:41;20.97;;;19.20;;
50555;SDS011;36508;52.512;13.450;2022-11-15T10:50:40;24.63;;;22.40;;
50555;SDS011;36508;52.512;13.450;2022-11-15T10:56:06;20.03;;;18.33;;
50555;SDS011;36508;52.512;13.450;2022-11-15T10:58:41;18.60;;;16.90;;
50555;SDS011;36508;52.512;13.450;2022-11-15T11:01:13;22.33;;;20.30;;
50555;SDS011;36508;52.512;13.450;2022-11-15T11:03:41;21.33;;;19.27;;
50555;SDS011;36508;52.512;13.450;2022-11-15T11:08:38;27.63;;;24.73;;
50555;SDS011;36508;52.512;13.450;2022-11-15T11:11:05;25.47;;;22.73;;
50555;SDS011;36508;52.512;13.450;2022-11-15T11:13:36;20.47;;;18.57;;
50555;SDS011;36508;52.512;13.450;2022-11-15T11:27:13;20.67;;;18.60;;
50555;SDS011;36508;52.512;13.450;2022-11-15T11:47:07;24.07;;;21.77;;
50555;SDS011;36508;52.512;13.450;2022-11-15T11:49:56;23.57;;;19.00;;
50555;SDS011;36508;52.512;13.450;2022-11-15T11:52:38;23.17;;;17.50;;
50555;SDS011;36508;52.512;13.450;2022-11-15T11:55:38;20.80;;;18.60;;
50555;SDS011;36508;52.512;13.450;2022-11-15T11:58:15;18.90;;;16.73;;
50555;SDS011;36508;52.512;13.450;2022-11-15T12:00:47;21.30;;;19.27;;
50555;SDS011;36508;52.512;13.450;2022-11-15T12:06:45;26.77;;;23.13;;
50555;SDS011;36508;52.512;13.450;2022-11-15T12:09:40;27.47;;;21.30;;
50555;SDS011;36508;52.512;13.450;2022-11-15T12:14:53;25.73;;;23.07;;
50555;SDS011;36508;52.512;13.450;2022-11-15T12:17:26;26.10;;;23.70;;
50555;SDS011;36508;52.512;13.450;2022-11-15T12:19:57;22.50;;;20.20;;
50555;SDS011;36508;52.512;13.450;2022-11-15T12:22:36;21.17;;;19.17;;
50555;SDS011;36508;52.512;13.450;2022-11-15T12:27:41;25.00;;;22.30;;
50555;SDS011;36508;52.512;13.450;2022-11-15T12:30:12;22.17;;;20.03;;
50555;SDS011;36508;52.512;13.450;2022-11-15T12:33:00;25.10;;;20.80;;
50555;SDS011;36508;52.512;13.450;2022-11-15T12:35:30;23.83;;;21.40;;
50555;SDS011;36508;52.512;13.450;2022-11-15T12:37:57;25.37;;;22.73;;
50555;SDS011;36508;52.512;13.450;2022-11-15T12:40:24;22.83;;;20.50;;
50555;SDS011;36508;52.512;13.450;2022-11-15T12:45:42;23.20;;;21.20;;
50555;SDS011;36508;52.512;13.450;2022-11-15T12:58:50;28.10;;;25.10;;
50555;SDS011;36508;52.512;13.450;2022-11-15T13:04:44;30.73;;;27.40;;
50555;SDS011;36508;52.512;13.450;2022-11-15T13:06:45;23.80;;;21.27;;
50555;SDS011;36508;52.512;13.450;2022-11-15T13:15:01;24.97;;;22.43;;
50555;SDS011;36508;52.512;13.450;2022-11-15T13:17:47;24.47;;;22.07;;
50555;SDS011;36508;52.512;13.450;2022-11-15T13:20:22;21.73;;;19.53;;
50555;SDS011;36508;52.512;13.450;2022-11-15T13:25:46;21.60;;;19.33;;
50555;SDS011;36508;52.512;13.450;2022-11-15T13:33:16;27.50;;;24.60;;
50555;SDS011;36508;52.512;13.450;2022-11-15T13:35:45;28.33;;;25.50;;
50555;SDS011;36508;52.512;13.450;2022-11-15T13:43:45;20.50;;;18.37;;
50555;SDS011;36508;52.512;13.450;2022-11-15T13:48:39;20.20;;;17.50;;
50555;SDS011;36508;52.512;13.450;2022-11-15T13:51:08;20.67;;;18.77;;
50555;SDS011;36508;52.512;13.450;2022-11-15T13:53:41;22.73;;;20.57;;
50555;SDS011;36508;52.512;13.450;2022-11-15T13:56:11;22.13;;;20.23;;
50555;SDS011;36508;52.512;13.450;2022-11-15T13:58:39;20.03;;;18.20;;
50555;SDS011;36508;52.512;13.450;2022-11-15T14:01:04;19.97;;;17.97;;
50555;SDS011;36508;52.512;13.450;2022-11-15T14:03:32;21.37;;;19.37;;
50555;SDS011;36508;52.512;13.450;2022-11-15T14:06:08;20.27;;;18.43;;
50555;SDS011;36508;52.512;13.450;2022-11-15T14:08:40;21.10;;;19.00;;
50555;SDS011;36508;52.512;13.450;2022-11-15T14:13:34;22.10;;;19.90;;
50555;SDS011;36508;52.512;13.450;2022-11-15T14:16:19;23.93;;;21.27;;
50555;SDS011;36508;52.512;13.450;2022-11-15T14:18:52;22.33;;;20.07;;
50555;SDS011;36508;52.512;13.450;2022-11-15T14:21:18;24.27;;;21.70;;
50555;SDS011;36508;52.512;13.450;2022-11-15T14:23:47;21.13;;;19.00;;
50555;SDS011;36508;52.512;13.450;2022-11-15T14:26:33;23.63;;;21.27;;
50555;SDS011;36508;52.512;13.450;2022-11-15T14:31:48;23.87;;;21.57;;
50555;SDS011;36508;52.512;13.450;2022-11-15T14:34:14;21.53;;;19.30;;
50555;SDS011;36508;52.512;13.450;2022-11-15T14:36:39;21.97;;;19.80;;
50555;SDS011;36508;52.512;13.450;2022-11-15T14:39:05;22.83;;;20.63;;
50555;SDS011;36508;52.512;13.450;2022-11-15T14:41:34;21.70;;;19.40;;
50555;SDS011;36508;52.512;13.450;2022-11-15T14:44:03;21.27;;;19.17;;
50555;SDS011;36508;52.512;13.450;2022-11-15T14:46:29;21.23;;;19.33;;
50555;SDS011;36508;52.512;13.450;2022-11-15T14:48:55;20.37;;;18.57;;
50555;SDS011;36508;52.512;13.450;2022-11-15T14:51:21;22.93;;;19.53;;
50555;SDS011;36508;52.512;13.450;2022-11-15T14:53:47;24.77;;;20.17;;
50555;SDS011;36508;52.512;13.450;2022-11-15T14:56:13;23.20;;;21.10;;
50555;SDS011;36508;52.512;13.450;2022-11-15T14:58:39;25.00;;;22.70;;
50555;SDS011;36508;52.512;13.450;2022-11-15T15:01:10;21.67;;;19.47;;
50555;SDS011;36508;52.512;13.450;2022-11-15T15:03:49;24.10;;;21.67;;
50555;SDS011;36508;52.512;13.450;2022-11-15T15:06:16;24.03;;;20.30;;
50555;SDS011;36508;52.512;13.450;2022-11-15T15:08:43;22.20;;;20.00;;
50555;SDS011;36508;52.512;13.450;2022-11-15T15:11:16;23.67;;;19.53;;
50555;SDS011;36508;52.512;13.450;2022-11-15T15:13:53;25.10;;;20.30;;
50555;SDS011;36508;52.512;13.450;2022-11-15T15:16:21;21.47;;;19.67;;
50555;SDS011;36508;52.512;13.450;2022-11-15T15:18:50;24.13;;;20.40;;
50555;SDS011;36508;52.512;13.450;2022-11-15T15:21:23;21.73;;;19.70;;
50555;SDS011;36508;52.512;13.450;2022-11-15T15:23:52;23.40;;;21.20;;
50555;SDS011;36508;52.512;13.450;2022-11-15T15:26:22;25.40;;;20.50;;
50555;SDS011;36508;52.512;13.450;2022-11-15T15:28:48;25.97;;;23.10;;
50555;SDS011;36508;52.512;13.450;2022-11-15T15:31:15;23.97;;;21.80;;
50555;SDS011;36508;52.512;13.450;2022-11-15T15:33:41;23.27;;;20.97;;
50555;SDS011;36508;52.512;13.450;2022-11-15T15:36:13;23.40;;;21.07;;
50555;SDS011;36508;52.512;13.450;2022-11-15T15:38:43;28.33;;;22.43;;
50555;SDS011;36508;52.512;13.450;2022-11-15T15:41:10;27.40;;;24.50;;
50555;SDS011;36508;52.512;13.450;2022-11-15T15:43:36;28.90;;;22.47;;
50555;SDS011;36508;52.512;13.450;2022-11-15T15:46:02;26.27;;;23.77;;
50555;SDS011;36508;52.512;13.450;2022-11-15T15:48:28;27.80;;;21.90;;
50555;SDS011;36508;52.512;13.450;2022-11-15T15:50:53;27.43;;;22.60;;
50555;SDS011;36508;52.512;13.450;2022-11-15T15:53:19;28.30;;;24.20;;
50555;SDS011;36508;52.512;13.450;2022-11-15T15:55:48;25.93;;;23.07;;
50555;SDS011;36508;52.512;13.450;2022-11-15T15:58:19;32.80;;;23.60;;
50555;SDS011;36508;52.512;13.450;2022-11-15T16:00:46;27.00;;;24.50;;
50555;SDS011;36508;52.512;13.450;2022-11-15T16:03:12;28.40;;;24.90;;
50555;SDS011;36508;52.512;13.450;2022-11-15T16:05:38;25.50;;;22.63;;
50555;SDS011;36508;52.512;13.450;2022-11-15T16:08:16;26.33;;;23.73;;
50555;SDS011;36508;52.512;13.450;2022-11-15T16:10:47;29.07;;;26.03;;
50555;SDS011;36508;52.512;13.450;2022-11-15T16:13:13;25.60;;;22.90;;
50555;SDS011;36508;52.512;13.450;2022-11-15T16:15:38;28.63;;;24.30;;
50555;SDS011;36508;52.512;13.450;2022-11-15T16:18:04;27.70;;;24.70;;
50555;SDS011;36508;52.512;13.450;2022-11-15T16:20:38;26.70;;;24.10;;
50555;SDS011;36508;52.512;13.450;2022-11-15T16:23:08;25.00;;;22.40;;
50555;SDS011;36508;52.512;13.450;2022-11-15T16:25:39;28.70;;;25.43;;
50555;SDS011;36508;52.512;13.450;2022-11-15T16:28:22;26.90;;;22.73;;
50555;SDS011;36508;52.512;13.450;2022-11-15T16:30:59;25.13;;;22.63;;
50555;SDS011;36508;52.512;13.450;2022-11-15T16:33:35;26.80;;;24.40;;
50555;SDS011;36508;52.512;13.450;2022-11-15T16:36:01;29.03;;;26.23;;
50555;SDS011;36508;52.512;13.450;2022-11-15T16:38:28;27.67;;;25.07;;
50555;SDS011;36508;52.512;13.450;2022-11-15T16:40:54;30.80;;;27.77;;
50555;SDS011;36508;52.512;13.450;2022-11-15T16:43:19;30.70;;;27.50;;